sensor_id;sensor_type;location;lat;lon;timestamp;P1;durP1;ratioP1;P2;durP2;ratioP2
19341;SDS011;9807;48.258;12.690;2023-03-03T00:01:32;69.20;;;31.33;;
19341;SDS011;9807;48.258;12.690;2023-03-03T00:03:58;66.90;;;29.43;;
19341;SDS011;9807;48.258;12.690;2023-03-03T00:06:25;67.47;;;30.87;;
19341;SDS011;9807;48.258;12.690;2023-03-03T00:08:51;76.27;;;32.67;;
19341;SDS011;9807;48.258;12.690;2023-03-03T00:11:17;80.63;;;34.57;;
19341;SDS011;9807;48.258;12.690;2023-03-03T00:13:46;79.37;;;33.17;;
19341;SDS011;9807;48.258;12.690;2023-03-03T00:18:46;80.50;;;33.53;;
19341;SDS011;9807;48.258;12.690;2023-03-03T00:23:50;80.63;;;32.97;;
19341;SDS011;9807;48.258;12.690;2023-03-03T00:26:20;79.47;;;32.93;;
19341;SDS011;9807;48.258;12.690;2023-03-03T00:28:50;75.27;;;31.63;;
19341;SDS011;9807;48.258;12.690;2023-03-03T00:31:19;81.03;;;34.03;;
19341;SDS011;9807;48.258;12.690;2023-03-03T00:33:48;78.17;;;33.03;;
19341;SDS011;9807;48.258;12.690;2023-03-03T00:38:52;86.07;;;37.97;;
19341;SDS011;9807;48.258;12.690;2023-03-03T00:41:23;92.20;;;38.10;;
19341;SDS011;9807;48.258;12.690;2023-03-03T00:43:51;100.23;;;43.53;;
19341;SDS011;9807;48.258;12.690;2023-03-03T00:46:18;111.20;;;45.00;;
19341;SDS011;9807;48.258;12.690;2023-03-03T00:48:46;118.43;;;48.87;;
19341;SDS011;9807;48.258;12.690;2023-03-03T00:53:47;118.83;;;52.40;;
19341;SDS011;9807;48.258;12.690;2023-03-03T00:56:13;110.83;;;48.67;;
19341;SDS011;9807;48.258;12.690;2023-03-03T00:58:39;53.57;;;24.43;;
19341;SDS011;9807;48.258;12.690;2023-03-03T01:01:05;59.93;;;25.63;;
19341;SDS011;9807;48.258;12.690;2023-03-03T01:03:31;75.70;;;33.67;;
19341;SDS011;9807;48.258;12.690;2023-03-03T01:05:57;63.43;;;28.90;;
19341;SDS011;9807;48.258;12.690;2023-03-03T01:08:23;61.00;;;27.00;;
19341;SDS011;9807;48.258;12.690;2023-03-03T01:10:51;76.27;;;33.73;;
19341;SDS011;9807;48.258;12.690;2023-03-03T01:13:22;88.90;;;40.10;;
19341;SDS011;9807;48.258;12.690;2023-03-03T01:15:51;79.37;;;35.50;;
19341;SDS011;9807;48.258;12.690;2023-03-03T01:18:16;86.33;;;38.50;;
19341;SDS011;9807;48.258;12.690;2023-03-03T01:20:43;80.13;;;35.83;;
19341;SDS011;9807;48.258;12.690;2023-03-03T01:23:08;78.63;;;36.17;;
19341;SDS011;9807;48.258;12.690;2023-03-03T01:25:37;71.03;;;33.07;;
19341;SDS011;9807;48.258;12.690;2023-03-03T01:28:03;54.17;;;24.50;;
19341;SDS011;9807;48.258;12.690;2023-03-03T01:30:29;48.63;;;21.47;;
19341;SDS011;9807;48.258;12.690;2023-03-03T01:32:56;44.20;;;21.13;;
19341;SDS011;9807;48.258;12.690;2023-03-03T01:35:22;38.93;;;19.97;;
19341;SDS011;9807;48.258;12.690;2023-03-03T01:37:48;42.73;;;21.27;;
19341;SDS011;9807;48.258;12.690;2023-03-03T01:40:16;46.53;;;23.03;;
19341;SDS011;9807;48.258;12.690;2023-03-03T01:42:52;46.40;;;20.83;;
19341;SDS011;9807;48.258;12.690;2023-03-03T01:47:55;43.77;;;20.97;;
19341;SDS011;9807;48.258;12.690;2023-03-03T01:50:39;59.90;;;26.63;;
19341;SDS011;9807;48.258;12.690;2023-03-03T01:53:18;57.43;;;26.97;;
19341;SDS011;9807;48.258;12.690;2023-03-03T01:55:46;71.70;;;33.47;;
19341;SDS011;9807;48.258;12.690;2023-03-03T01:58:15;74.87;;;35.33;;
19341;SDS011;9807;48.258;12.690;2023-03-03T02:01:03;75.80;;;33.80;;
19341;SDS011;9807;48.258;12.690;2023-03-03T02:03:32;57.00;;;26.83;;
19341;SDS011;9807;48.258;12.690;2023-03-03T02:05:59;47.47;;;21.77;;
19341;SDS011;9807;48.258;12.690;2023-03-03T02:08:42;48.93;;;23.07;;
19341;SDS011;9807;48.258;12.690;2023-03-03T02:11:20;53.70;;;25.40;;
19341;SDS011;9807;48.258;12.690;2023-03-03T02:13:46;62.90;;;28.27;;
19341;SDS011;9807;48.258;12.690;2023-03-03T02:16:12;59.63;;;27.13;;
19341;SDS011;9807;48.258;12.690;2023-03-03T02:18:39;56.30;;;26.83;;
19341;SDS011;9807;48.258;12.690;2023-03-03T02:26:08;65.13;;;31.40;;
19341;SDS011;9807;48.258;12.690;2023-03-03T02:28:37;44.13;;;22.27;;
19341;SDS011;9807;48.258;12.690;2023-03-03T02:31:05;38.63;;;19.57;;
19341;SDS011;9807;48.258;12.690;2023-03-03T02:33:36;39.27;;;18.83;;
19341;SDS011;9807;48.258;12.690;2023-03-03T02:36:19;38.80;;;19.47;;
19341;SDS011;9807;48.258;12.690;2023-03-03T02:44:15;38.17;;;19.30;;
19341;SDS011;9807;48.258;12.690;2023-03-03T02:46:44;39.33;;;18.50;;
19341;SDS011;9807;48.258;12.690;2023-03-03T02:49:13;40.50;;;20.50;;
19341;SDS011;9807;48.258;12.690;2023-03-03T02:51:40;41.70;;;20.57;;
19341;SDS011;9807;48.258;12.690;2023-03-03T02:54:07;36.67;;;19.07;;
19341;SDS011;9807;48.258;12.690;2023-03-03T02:56:33;39.43;;;18.97;;
19341;SDS011;9807;48.258;12.690;2023-03-03T02:59:03;37.87;;;19.00;;
19341;SDS011;9807;48.258;12.690;2023-03-03T03:01:29;36.43;;;18.60;;
19341;SDS011;9807;48.258;12.690;2023-03-03T03:04:11;46.10;;;22.77;;
19341;SDS011;9807;48.258;12.690;2023-03-03T03:06:41;55.00;;;25.53;;
19341;SDS011;9807;48.258;12.690;2023-03-03T03:09:08;51.93;;;25.70;;
19341;SDS011;9807;48.258;12.690;2023-03-03T03:11:37;39.53;;;20.27;;
19341;SDS011;9807;48.258;12.690;2023-03-03T03:14:04;35.53;;;18.67;;
19341;SDS011;9807;48.258;12.690;2023-03-03T03:16:31;59.93;;;28.03;;
19341;SDS011;9807;48.258;12.690;2023-03-03T03:19:00;54.57;;;24.67;;
19341;SDS011;9807;48.258;12.690;2023-03-03T03:21:27;37.03;;;18.90;;
19341;SDS011;9807;48.258;12.690;2023-03-03T03:23:53;38.67;;;18.37;;
19341;SDS011;9807;48.258;12.690;2023-03-03T03:26:18;61.20;;;28.80;;
19341;SDS011;9807;48.258;12.690;2023-03-03T03:28:45;56.13;;;27.30;;
19341;SDS011;9807;48.258;12.690;2023-03-03T03:31:12;42.87;;;20.40;;
19341;SDS011;9807;48.258;12.690;2023-03-03T03:33:38;41.80;;;19.77;;
19341;SDS011;9807;48.258;12.690;2023-03-03T03:36:04;34.50;;;19.30;;
19341;SDS011;9807;48.258;12.690;2023-03-03T03:38:31;39.00;;;20.23;;
19341;SDS011;9807;48.258;12.690;2023-03-03T03:40:58;45.73;;;21.90;;
19341;SDS011;9807;48.258;12.690;2023-03-03T03:43:24;42.43;;;20.43;;
19341;SDS011;9807;48.258;12.690;2023-03-03T03:45:50;42.10;;;20.77;;
19341;SDS011;9807;48.258;12.690;2023-03-03T03:48:17;51.73;;;26.50;;
19341;SDS011;9807;48.258;12.690;2023-03-03T03:50:44;42.23;;;20.37;;
19341;SDS011;9807;48.258;12.690;2023-03-03T03:53:11;38.00;;;19.27;;
19341;SDS011;9807;48.258;12.690;2023-03-03T03:55:37;43.63;;;21.97;;
19341;SDS011;9807;48.258;12.690;2023-03-03T03:58:03;44.17;;;20.67;;
19341;SDS011;9807;48.258;12.690;2023-03-03T04:00:29;36.77;;;18.53;;
19341;SDS011;9807;48.258;12.690;2023-03-03T04:02:55;48.13;;;23.83;;
19341;SDS011;9807;48.258;12.690;2023-03-03T04:05:24;59.87;;;28.80;;
19341;SDS011;9807;48.258;12.690;2023-03-03T04:07:49;58.93;;;28.13;;
19341;SDS011;9807;48.258;12.690;2023-03-03T04:10:15;42.57;;;20.57;;
19341;SDS011;9807;48.258;12.690;2023-03-03T04:12:41;40.47;;;20.43;;
19341;SDS011;9807;48.258;12.690;2023-03-03T04:15:09;39.63;;;20.30;;
19341;SDS011;9807;48.258;12.690;2023-03-03T04:17:37;37.70;;;18.50;;
19341;SDS011;9807;48.258;12.690;2023-03-03T04:20:03;48.83;;;22.13;;
19341;SDS011;9807;48.258;12.690;2023-03-03T04:22:30;40.87;;;20.47;;
19341;SDS011;9807;48.258;12.690;2023-03-03T04:25:04;52.37;;;24.67;;
19341;SDS011;9807;48.258;12.690;2023-03-03T04:27:34;48.93;;;23.43;;
19341;SDS011;9807;48.258;12.690;2023-03-03T04:30:04;50.17;;;23.60;;
19341;SDS011;9807;48.258;12.690;2023-03-03T04:32:31;67.43;;;30.23;;
19341;SDS011;9807;48.258;12.690;2023-03-03T04:34:58;46.60;;;21.50;;
19341;SDS011;9807;48.258;12.690;2023-03-03T04:37:23;60.90;;;29.50;;
19341;SDS011;9807;48.258;12.690;2023-03-03T04:39:49;66.70;;;30.63;;
19341;SDS011;9807;48.258;12.690;2023-03-03T04:42:15;62.70;;;29.20;;
19341;SDS011;9807;48.258;12.690;2023-03-03T04:44:41;62.23;;;28.97;;
19341;SDS011;9807;48.258;12.690;2023-03-03T04:47:06;43.43;;;22.20;;
19341;SDS011;9807;48.258;12.690;2023-03-03T04:49:32;49.33;;;23.93;;
19341;SDS011;9807;48.258;12.690;2023-03-03T04:51:58;56.63;;;27.60;;
19341;SDS011;9807;48.258;12.690;2023-03-03T04:54:23;51.60;;;24.17;;
19341;SDS011;9807;48.258;12.690;2023-03-03T04:56:49;67.63;;;31.43;;
19341;SDS011;9807;48.258;12.690;2023-03-03T04:59:15;61.13;;;29.93;;
19341;SDS011;9807;48.258;12.690;2023-03-03T05:01:41;66.70;;;31.60;;
19341;SDS011;9807;48.258;12.690;2023-03-03T05:04:06;66.70;;;31.60;;
19341;SDS011;9807;48.258;12.690;2023-03-03T05:06:32;56.47;;;28.27;;
19341;SDS011;9807;48.258;12.690;2023-03-03T05:08:58;46.90;;;22.90;;
19341;SDS011;9807;48.258;12.690;2023-03-03T05:11:24;61.67;;;28.60;;
19341;SDS011;9807;48.258;12.690;2023-03-03T05:13:49;65.43;;;29.93;;
19341;SDS011;9807;48.258;12.690;2023-03-03T05:16:15;61.20;;;28.20;;
19341;SDS011;9807;48.258;12.690;2023-03-03T05:18:41;76.83;;;32.60;;
19341;SDS011;9807;48.258;12.690;2023-03-03T05:21:06;63.93;;;31.57;;
19341;SDS011;9807;48.258;12.690;2023-03-03T05:23:32;65.63;;;31.00;;
19341;SDS011;9807;48.258;12.690;2023-03-03T05:25:58;68.60;;;32.07;;
19341;SDS011;9807;48.258;12.690;2023-03-03T05:28:23;64.80;;;29.03;;
19341;SDS011;9807;48.258;12.690;2023-03-03T05:30:49;72.77;;;33.33;;
19341;SDS011;9807;48.258;12.690;2023-03-03T05:33:17;74.93;;;34.00;;
19341;SDS011;9807;48.258;12.690;2023-03-03T05:35:43;71.23;;;33.10;;
19341;SDS011;9807;48.258;12.690;2023-03-03T05:38:09;77.83;;;35.97;;
19341;SDS011;9807;48.258;12.690;2023-03-03T05:40:37;74.97;;;36.17;;
19341;SDS011;9807;48.258;12.690;2023-03-03T05:43:03;72.23;;;32.60;;
19341;SDS011;9807;48.258;12.690;2023-03-03T05:45:29;72.63;;;34.27;;
19341;SDS011;9807;48.258;12.690;2023-03-03T05:47:55;78.43;;;36.00;;
19341;SDS011;9807;48.258;12.690;2023-03-03T05:50:21;80.60;;;34.97;;
19341;SDS011;9807;48.258;12.690;2023-03-03T05:52:47;83.37;;;35.53;;
19341;SDS011;9807;48.258;12.690;2023-03-03T05:55:14;75.93;;;34.43;;
19341;SDS011;9807;48.258;12.690;2023-03-03T05:57:39;76.57;;;33.80;;
19341;SDS011;9807;48.258;12.690;2023-03-03T06:00:05;73.57;;;32.63;;
19341;SDS011;9807;48.258;12.690;2023-03-03T06:02:32;72.77;;;32.97;;
19341;SDS011;9807;48.258;12.690;2023-03-03T06:04:59;74.67;;;33.43;;
19341;SDS011;9807;48.258;12.690;2023-03-03T06:07:28;76.60;;;33.87;;
19341;SDS011;9807;48.258;12.690;2023-03-03T06:09:57;88.00;;;37.40;;
19341;SDS011;9807;48.258;12.690;2023-03-03T06:12:22;73.90;;;32.67;;
19341;SDS011;9807;48.258;12.690;2023-03-03T06:14:48;60.93;;;26.47;;
19341;SDS011;9807;48.258;12.690;2023-03-03T06:17:14;75.63;;;33.33;;
19341;SDS011;9807;48.258;12.690;2023-03-03T06:19:39;52.50;;;24.93;;
19341;SDS011;9807;48.258;12.690;2023-03-03T06:22:05;50.43;;;23.47;;
19341;SDS011;9807;48.258;12.690;2023-03-03T06:24:32;46.03;;;22.00;;
19341;SDS011;9807;48.258;12.690;2023-03-03T06:26:58;52.90;;;24.87;;
19341;SDS011;9807;48.258;12.690;2023-03-03T06:29:24;64.97;;;28.47;;
19341;SDS011;9807;48.258;12.690;2023-03-03T06:31:50;62.73;;;29.33;;
19341;SDS011;9807;48.258;12.690;2023-03-03T06:34:16;42.43;;;21.77;;
19341;SDS011;9807;48.258;12.690;2023-03-03T06:36:42;42.47;;;21.33;;
19341;SDS011;9807;48.258;12.690;2023-03-03T06:39:08;38.37;;;19.50;;
19341;SDS011;9807;48.258;12.690;2023-03-03T06:41:33;56.57;;;26.50;;
19341;SDS011;9807;48.258;12.690;2023-03-03T06:44:01;44.67;;;23.03;;
19341;SDS011;9807;48.258;12.690;2023-03-03T06:46:27;49.70;;;23.37;;
19341;SDS011;9807;48.258;12.690;2023-03-03T06:48:52;43.43;;;21.80;;
19341;SDS011;9807;48.258;12.690;2023-03-03T06:51:22;63.83;;;29.63;;
19341;SDS011;9807;48.258;12.690;2023-03-03T06:53:56;54.03;;;26.97;;
19341;SDS011;9807;48.258;12.690;2023-03-03T06:56:24;67.57;;;32.03;;
19341;SDS011;9807;48.258;12.690;2023-03-03T06:58:57;71.83;;;33.17;;
19341;SDS011;9807;48.258;12.690;2023-03-03T07:01:24;64.07;;;31.17;;
19341;SDS011;9807;48.258;12.690;2023-03-03T07:03:51;68.53;;;33.23;;
19341;SDS011;9807;48.258;12.690;2023-03-03T07:06:23;71.00;;;32.30;;
19341;SDS011;9807;48.258;12.690;2023-03-03T07:08:53;70.83;;;32.47;;
19341;SDS011;9807;48.258;12.690;2023-03-03T07:11:21;73.57;;;34.83;;
19341;SDS011;9807;48.258;12.690;2023-03-03T07:13:51;72.77;;;34.20;;
19341;SDS011;9807;48.258;12.690;2023-03-03T07:16:19;74.03;;;35.00;;
19341;SDS011;9807;48.258;12.690;2023-03-03T07:18:54;75.10;;;34.60;;
19341;SDS011;9807;48.258;12.690;2023-03-03T07:21:30;74.80;;;33.10;;
19341;SDS011;9807;48.258;12.690;2023-03-03T07:23:58;78.43;;;33.27;;
19341;SDS011;9807;48.258;12.690;2023-03-03T07:26:27;76.13;;;33.97;;
19341;SDS011;9807;48.258;12.690;2023-03-03T07:29:00;74.93;;;34.07;;
19341;SDS011;9807;48.258;12.690;2023-03-03T07:31:44;76.93;;;34.47;;
19341;SDS011;9807;48.258;12.690;2023-03-03T07:34:22;74.63;;;33.80;;
19341;SDS011;9807;48.258;12.690;2023-03-03T07:36:49;84.20;;;35.20;;
19341;SDS011;9807;48.258;12.690;2023-03-03T07:42:30;77.40;;;34.13;;
19341;SDS011;9807;48.258;12.690;2023-03-03T07:44:54;77.27;;;34.87;;
19341;SDS011;9807;48.258;12.690;2023-03-03T07:47:25;74.77;;;34.97;;
19341;SDS011;9807;48.258;12.690;2023-03-03T07:49:53;83.43;;;34.70;;
19341;SDS011;9807;48.258;12.690;2023-03-03T07:52:28;81.20;;;36.60;;
19341;SDS011;9807;48.258;12.690;2023-03-03T08:03:06;78.03;;;33.30;;
19341;SDS011;9807;48.258;12.690;2023-03-03T08:05:53;80.97;;;34.80;;
19341;SDS011;9807;48.258;12.690;2023-03-03T08:10:58;77.80;;;32.53;;
19341;SDS011;9807;48.258;12.690;2023-03-03T08:15:59;84.17;;;35.93;;
19341;SDS011;9807;48.258;12.690;2023-03-03T08:18:29;82.87;;;33.27;;
19341;SDS011;9807;48.258;12.690;2023-03-03T08:21:04;83.83;;;34.53;;
19341;SDS011;9807;48.258;12.690;2023-03-03T08:23:39;90.43;;;36.43;;
19341;SDS011;9807;48.258;12.690;2023-03-03T08:26:05;89.50;;;37.23;;
19341;SDS011;9807;48.258;12.690;2023-03-03T08:28:31;84.00;;;35.10;;
19341;SDS011;9807;48.258;12.690;2023-03-03T08:30:57;95.67;;;36.47;;
19341;SDS011;9807;48.258;12.690;2023-03-03T08:33:23;84.73;;;35.23;;
19341;SDS011;9807;48.258;12.690;2023-03-03T08:35:48;103.47;;;40.57;;
19341;SDS011;9807;48.258;12.690;2023-03-03T08:38:15;89.83;;;38.83;;
19341;SDS011;9807;48.258;12.690;2023-03-03T08:40:42;88.33;;;39.67;;
19341;SDS011;9807;48.258;12.690;2023-03-03T08:43:08;96.50;;;36.80;;
19341;SDS011;9807;48.258;12.690;2023-03-03T08:45:35;90.33;;;38.63;;
19341;SDS011;9807;48.258;12.690;2023-03-03T08:48:02;88.73;;;38.30;;
19341;SDS011;9807;48.258;12.690;2023-03-03T08:50:28;98.80;;;39.87;;
19341;SDS011;9807;48.258;12.690;2023-03-03T08:52:54;99.70;;;41.60;;
19341;SDS011;9807;48.258;12.690;2023-03-03T08:55:20;90.73;;;39.40;;
19341;SDS011;9807;48.258;12.690;2023-03-03T08:57:45;96.70;;;40.00;;
19341;SDS011;9807;48.258;12.690;2023-03-03T09:00:12;87.27;;;37.90;;
19341;SDS011;9807;48.258;12.690;2023-03-03T09:02:40;87.40;;;37.20;;
19341;SDS011;9807;48.258;12.690;2023-03-03T09:05:06;92.10;;;37.53;;
19341;SDS011;9807;48.258;12.690;2023-03-03T09:07:32;110.27;;;39.50;;
19341;SDS011;9807;48.258;12.690;2023-03-03T09:09:58;93.37;;;40.47;;
19341;SDS011;9807;48.258;12.690;2023-03-03T09:12:29;107.10;;;43.70;;
19341;SDS011;9807;48.258;12.690;2023-03-03T09:17:39;117.60;;;52.20;;
19341;SDS011;9807;48.258;12.690;2023-03-03T09:20:22;125.33;;;54.17;;
19341;SDS011;9807;48.258;12.690;2023-03-03T09:23:20;120.77;;;55.10;;
19341;SDS011;9807;48.258;12.690;2023-03-03T09:25:54;144.00;;;62.43;;
19341;SDS011;9807;48.258;12.690;2023-03-03T09:28:24;124.63;;;59.00;;
19341;SDS011;9807;48.258;12.690;2023-03-03T09:30:59;135.70;;;62.03;;
19341;SDS011;9807;48.258;12.690;2023-03-03T09:33:42;137.10;;;62.27;;
19341;SDS011;9807;48.258;12.690;2023-03-03T09:36:21;142.30;;;63.90;;
19341;SDS011;9807;48.258;12.690;2023-03-03T09:38:50;131.70;;;60.20;;
19341;SDS011;9807;48.258;12.690;2023-03-03T10:06:39;87.63;;;38.63;;
19341;SDS011;9807;48.258;12.690;2023-03-03T10:12:04;91.90;;;41.93;;
19341;SDS011;9807;48.258;12.690;2023-03-03T10:14:54;104.13;;;43.23;;
19341;SDS011;9807;48.258;12.690;2023-03-03T10:18:01;88.37;;;40.23;;
19341;SDS011;9807;48.258;12.690;2023-03-03T10:21:01;68.13;;;31.70;;
19341;SDS011;9807;48.258;12.690;2023-03-03T11:12:42;85.57;;;40.37;;
19341;SDS011;9807;48.258;12.690;2023-03-03T11:21:12;79.63;;;38.30;;
19341;SDS011;9807;48.258;12.690;2023-03-03T11:32:00;89.07;;;40.67;;
19341;SDS011;9807;48.258;12.690;2023-03-03T11:39:46;79.43;;;36.13;;
19341;SDS011;9807;48.258;12.690;2023-03-03T11:45:00;77.47;;;37.87;;
19341;SDS011;9807;48.258;12.690;2023-03-03T11:47:41;75.20;;;37.00;;
19341;SDS011;9807;48.258;12.690;2023-03-03T11:50:27;74.47;;;38.20;;
19341;SDS011;9807;48.258;12.690;2023-03-03T11:56:26;75.60;;;38.17;;
19341;SDS011;9807;48.258;12.690;2023-03-03T12:04:57;72.03;;;36.40;;
19341;SDS011;9807;48.258;12.690;2023-03-03T12:10:29;74.80;;;38.33;;
19341;SDS011;9807;48.258;12.690;2023-03-03T12:15:48;71.40;;;37.40;;
19341;SDS011;9807;48.258;12.690;2023-03-03T12:21:28;75.87;;;39.03;;
19341;SDS011;9807;48.258;12.690;2023-03-03T12:34:40;71.43;;;38.27;;
19341;SDS011;9807;48.258;12.690;2023-03-03T12:38:04;68.63;;;36.30;;
19341;SDS011;9807;48.258;12.690;2023-03-03T12:40:40;73.30;;;37.10;;
19341;SDS011;9807;48.258;12.690;2023-03-03T12:43:29;53.87;;;29.83;;
19341;SDS011;9807;48.258;12.690;2023-03-03T12:48:54;72.87;;;38.37;;
19341;SDS011;9807;48.258;12.690;2023-03-03T12:51:25;66.87;;;32.87;;
19341;SDS011;9807;48.258;12.690;2023-03-03T12:57:12;75.73;;;38.70;;
19341;SDS011;9807;48.258;12.690;2023-03-03T12:59:53;60.97;;;34.70;;
19341;SDS011;9807;48.258;12.690;2023-03-03T13:10:26;65.20;;;34.77;;
19341;SDS011;9807;48.258;12.690;2023-03-03T13:15:57;72.40;;;38.83;;
19341;SDS011;9807;48.258;12.690;2023-03-03T13:18:34;79.33;;;40.90;;
19341;SDS011;9807;48.258;12.690;2023-03-03T13:21:04;73.50;;;39.37;;
19341;SDS011;9807;48.258;12.690;2023-03-03T13:26:34;67.60;;;37.93;;
19341;SDS011;9807;48.258;12.690;2023-03-03T13:29:25;56.63;;;30.03;;
19341;SDS011;9807;48.258;12.690;2023-03-03T13:31:55;68.20;;;35.57;;
19341;SDS011;9807;48.258;12.690;2023-03-03T13:34:36;71.97;;;35.83;;
19341;SDS011;9807;48.258;12.690;2023-03-03T13:37:26;53.63;;;30.37;;
19341;SDS011;9807;48.258;12.690;2023-03-03T13:40:18;75.27;;;39.17;;
19341;SDS011;9807;48.258;12.690;2023-03-03T13:43:03;66.47;;;37.13;;
19341;SDS011;9807;48.258;12.690;2023-03-03T13:50:56;70.57;;;38.20;;
19341;SDS011;9807;48.258;12.690;2023-03-03T13:56:20;72.77;;;38.50;;
19341;SDS011;9807;48.258;12.690;2023-03-03T14:01:39;73.30;;;38.77;;
19341;SDS011;9807;48.258;12.690;2023-03-03T14:04:28;78.90;;;38.83;;
19341;SDS011;9807;48.258;12.690;2023-03-03T14:07:10;79.67;;;40.00;;
19341;SDS011;9807;48.258;12.690;2023-03-03T14:12:39;75.00;;;38.67;;
19341;SDS011;9807;48.258;12.690;2023-03-03T14:15:31;66.47;;;38.00;;
19341;SDS011;9807;48.258;12.690;2023-03-03T14:18:21;77.73;;;38.80;;
19341;SDS011;9807;48.258;12.690;2023-03-03T14:20:59;74.47;;;38.97;;
19341;SDS011;9807;48.258;12.690;2023-03-03T14:26:28;73.97;;;38.47;;
19341;SDS011;9807;48.258;12.690;2023-03-03T14:29:03;70.57;;;37.83;;
19341;SDS011;9807;48.258;12.690;2023-03-03T14:31:43;69.90;;;37.17;;
19341;SDS011;9807;48.258;12.690;2023-03-03T14:37:27;68.30;;;39.13;;
19341;SDS011;9807;48.258;12.690;2023-03-03T14:45:35;67.20;;;35.27;;
19341;SDS011;9807;48.258;12.690;2023-03-03T14:48:26;73.23;;;39.77;;
19341;SDS011;9807;48.258;12.690;2023-03-03T14:50:58;74.20;;;37.47;;
19341;SDS011;9807;48.258;12.690;2023-03-03T14:53:41;82.57;;;39.20;;
19341;SDS011;9807;48.258;12.690;2023-03-03T14:56:20;66.17;;;38.07;;
19341;SDS011;9807;48.258;12.690;2023-03-03T14:58:49;63.60;;;34.00;;
19341;SDS011;9807;48.258;12.690;2023-03-03T15:11:54;63.23;;;36.30;;
19341;SDS011;9807;48.258;12.690;2023-03-03T15:14:27;68.40;;;36.13;;
19341;SDS011;9807;48.258;12.690;2023-03-03T15:17:18;66.43;;;37.33;;
19341;SDS011;9807;48.258;12.690;2023-03-03T15:22:47;77.80;;;38.63;;
19341;SDS011;9807;48.258;12.690;2023-03-03T15:25:21;69.60;;;37.53;;
19341;SDS011;9807;48.258;12.690;2023-03-03T15:31:02;72.13;;;39.27;;
19341;SDS011;9807;48.258;12.690;2023-03-03T15:34:42;70.43;;;37.20;;
19341;SDS011;9807;48.258;12.690;2023-03-03T15:39:48;70.23;;;36.57;;
19341;SDS011;9807;48.258;12.690;2023-03-03T15:56:54;56.60;;;33.23;;
19341;SDS011;9807;48.258;12.690;2023-03-03T16:02:20;60.90;;;36.37;;
19341;SDS011;9807;48.258;12.690;2023-03-03T16:04:55;70.17;;;37.50;;
19341;SDS011;9807;48.258;12.690;2023-03-03T16:10:09;69.03;;;37.57;;
19341;SDS011;9807;48.258;12.690;2023-03-03T16:13:08;64.07;;;36.67;;
19341;SDS011;9807;48.258;12.690;2023-03-03T16:18:36;68.17;;;37.43;;
19341;SDS011;9807;48.258;12.690;2023-03-03T16:21:09;74.60;;;39.43;;
19341;SDS011;9807;48.258;12.690;2023-03-03T16:29:41;57.10;;;30.40;;
19341;SDS011;9807;48.258;12.690;2023-03-03T16:32:26;68.70;;;37.30;;
19341;SDS011;9807;48.258;12.690;2023-03-03T16:35:20;55.13;;;32.53;;
19341;SDS011;9807;48.258;12.690;2023-03-03T16:45:49;75.03;;;41.10;;
19341;SDS011;9807;48.258;12.690;2023-03-03T16:51:23;72.00;;;39.30;;
19341;SDS011;9807;48.258;12.690;2023-03-03T17:08:09;77.47;;;41.07;;
19341;SDS011;9807;48.258;12.690;2023-03-03T17:16:57;74.80;;;38.60;;
19341;SDS011;9807;48.258;12.690;2023-03-03T17:22:20;72.57;;;38.40;;
19341;SDS011;9807;48.258;12.690;2023-03-03T17:25:03;77.67;;;40.07;;
19341;SDS011;9807;48.258;12.690;2023-03-03T17:33:00;85.73;;;43.70;;
19341;SDS011;9807;48.258;12.690;2023-03-03T17:35:43;84.27;;;41.17;;
19341;SDS011;9807;48.258;12.690;2023-03-03T17:41:10;82.17;;;43.77;;
19341;SDS011;9807;48.258;12.690;2023-03-03T17:44:01;52.93;;;31.00;;
19341;SDS011;9807;48.258;12.690;2023-03-03T17:46:52;34.17;;;19.47;;
19341;SDS011;9807;48.258;12.690;2023-03-03T18:06:56;92.70;;;48.23;;
19341;SDS011;9807;48.258;12.690;2023-03-03T18:15:08;37.80;;;21.67;;
19341;SDS011;9807;48.258;12.690;2023-03-03T18:23:27;67.17;;;33.73;;
19341;SDS011;9807;48.258;12.690;2023-03-03T18:26:04;91.13;;;46.50;;
19341;SDS011;9807;48.258;12.690;2023-03-03T18:37:08;79.87;;;40.37;;
19341;SDS011;9807;48.258;12.690;2023-03-03T18:40:40;54.77;;;30.27;;
19341;SDS011;9807;48.258;12.690;2023-03-03T18:46:09;37.40;;;20.90;;
19341;SDS011;9807;48.258;12.690;2023-03-03T18:54:19;37.17;;;21.47;;
19341;SDS011;9807;48.258;12.690;2023-03-03T19:04:37;37.97;;;21.80;;
19341;SDS011;9807;48.258;12.690;2023-03-03T19:12:57;86.03;;;44.80;;
19341;SDS011;9807;48.258;12.690;2023-03-03T19:27:14;40.40;;;22.20;;
19341;SDS011;9807;48.258;12.690;2023-03-03T19:35:16;41.70;;;22.27;;
19341;SDS011;9807;48.258;12.690;2023-03-03T19:48:35;40.17;;;21.97;;
19341;SDS011;9807;48.258;12.690;2023-03-03T19:51:24;38.93;;;21.53;;
19341;SDS011;9807;48.258;12.690;2023-03-03T19:57:10;47.13;;;25.13;;
19341;SDS011;9807;48.258;12.690;2023-03-03T20:16:19;66.63;;;35.07;;
19341;SDS011;9807;48.258;12.690;2023-03-03T20:29:57;40.90;;;23.30;;
19341;SDS011;9807;48.258;12.690;2023-03-03T20:41:10;41.00;;;23.30;;
19341;SDS011;9807;48.258;12.690;2023-03-03T21:05:24;47.17;;;24.83;;
19341;SDS011;9807;48.258;12.690;2023-03-03T21:10:26;45.97;;;25.63;;
19341;SDS011;9807;48.258;12.690;2023-03-03T21:12:58;42.87;;;23.93;;
19341;SDS011;9807;48.258;12.690;2023-03-03T21:16:38;43.73;;;24.23;;
19341;SDS011;9807;48.258;12.690;2023-03-03T21:19:09;51.10;;;27.17;;
19341;SDS011;9807;48.258;12.690;2023-03-03T21:21:37;47.63;;;25.97;;
19341;SDS011;9807;48.258;12.690;2023-03-03T21:24:09;44.00;;;24.47;;
19341;SDS011;9807;48.258;12.690;2023-03-03T21:26:45;46.13;;;25.37;;
19341;SDS011;9807;48.258;12.690;2023-03-03T21:31:48;45.43;;;24.80;;
19341;SDS011;9807;48.258;12.690;2023-03-03T21:34:25;43.10;;;23.97;;
19341;SDS011;9807;48.258;12.690;2023-03-03T21:36:53;64.80;;;35.40;;
19341;SDS011;9807;48.258;12.690;2023-03-03T21:39:25;67.27;;;35.80;;
19341;SDS011;9807;48.258;12.690;2023-03-03T21:41:56;67.67;;;35.83;;
19341;SDS011;9807;48.258;12.690;2023-03-03T21:46:56;69.90;;;37.90;;
19341;SDS011;9807;48.258;12.690;2023-03-03T21:49:22;69.10;;;36.50;;
19341;SDS011;9807;48.258;12.690;2023-03-03T21:51:48;68.73;;;36.27;;
19341;SDS011;9807;48.258;12.690;2023-03-03T21:54:14;63.20;;;33.03;;
19341;SDS011;9807;48.258;12.690;2023-03-03T21:56:39;47.03;;;25.07;;
19341;SDS011;9807;48.258;12.690;2023-03-03T21:59:06;55.57;;;30.27;;
19341;SDS011;9807;48.258;12.690;2023-03-03T22:01:33;72.27;;;36.50;;
19341;SDS011;9807;48.258;12.690;2023-03-03T22:03:59;71.87;;;38.63;;
19341;SDS011;9807;48.258;12.690;2023-03-03T22:06:24;75.07;;;38.40;;
19341;SDS011;9807;48.258;12.690;2023-03-03T22:08:50;73.37;;;35.63;;
19341;SDS011;9807;48.258;12.690;2023-03-03T22:11:16;103.43;;;46.73;;
19341;SDS011;9807;48.258;12.690;2023-03-03T22:13:41;119.13;;;51.87;;
19341;SDS011;9807;48.258;12.690;2023-03-03T22:16:07;136.50;;;57.53;;
19341;SDS011;9807;48.258;12.690;2023-03-03T22:18:33;93.10;;;44.23;;
19341;SDS011;9807;48.258;12.690;2023-03-03T22:20:58;85.63;;;42.27;;
19341;SDS011;9807;48.258;12.690;2023-03-03T22:23:24;90.27;;;42.73;;
19341;SDS011;9807;48.258;12.690;2023-03-03T22:25:50;95.13;;;45.70;;
19341;SDS011;9807;48.258;12.690;2023-03-03T22:28:16;70.83;;;35.70;;
19341;SDS011;9807;48.258;12.690;2023-03-03T22:30:41;57.07;;;28.27;;